createdAt,value
2022-08-11T00:01:53.195Z,1.20
2022-08-11T00:04:23.729Z,0.82
2022-08-11T00:06:51.944Z,0.70
2022-08-11T00:09:21.408Z,0.80
2022-08-11T00:11:53.947Z,0.95
2022-08-11T00:14:36.040Z,0.70
2022-08-11T00:17:13.508Z,0.75
2022-08-11T00:20:14.997Z,0.80
2022-08-11T00:22:39.759Z,0.60
2022-08-11T00:25:12.800Z,0.70
2022-08-11T00:27:41.140Z,1.30
2022-08-11T00:30:10.161Z,0.73
2022-08-11T00:32:46.224Z,0.70
2022-08-11T00:35:53.703Z,1.20
2022-08-11T00:38:05.559Z,0.90
2022-08-11T00:40:45.074Z,0.80
2022-08-11T00:43:57.746Z,0.85
2022-08-11T00:46:27.126Z,0.63
2022-08-11T00:49:04.848Z,0.65
2022-08-11T00:52:04.270Z,0.70
2022-08-11T00:55:00.552Z,0.60
2022-08-11T00:57:58.421Z,2.05
2022-08-11T01:00:32.306Z,0.90
2022-08-11T01:03:19.624Z,0.77
2022-08-11T01:05:57.701Z,1.02
2022-08-11T01:08:59.034Z,0.93
2022-08-11T01:12:01.684Z,0.80
2022-08-11T01:15:16.451Z,1.05
2022-08-11T01:18:18.815Z,0.93
2022-08-11T01:21:10.265Z,0.90
2022-08-11T01:24:05.250Z,0.90
2022-08-11T01:26:43.854Z,1.10
2022-08-11T01:29:32.363Z,0.88
2022-08-11T01:32:21.678Z,1.00
2022-08-11T01:35:23.993Z,1.00
2022-08-11T01:38:12.195Z,1.13
2022-08-11T01:41:22.827Z,1.00
2022-08-11T01:44:37.315Z,1.00
2022-08-11T01:47:52.591Z,0.98
2022-08-11T01:50:46.461Z,1.15
2022-08-11T01:53:25.175Z,1.30
2022-08-11T01:56:30.650Z,1.20
2022-08-11T01:59:14.178Z,0.95
2022-08-11T02:01:40.817Z,0.75
2022-08-11T02:04:29.980Z,0.68
2022-08-11T02:07:15.370Z,0.83
2022-08-11T02:10:35.314Z,1.02
2022-08-11T02:13:15.917Z,0.88
2022-08-11T02:15:55.926Z,0.90
2022-08-11T02:19:05.394Z,0.88
2022-08-11T02:22:02.443Z,1.17
2022-08-11T02:24:44.099Z,1.27
2022-08-11T02:27:23.323Z,1.40
2022-08-11T02:30:05.223Z,1.20
2022-08-11T02:33:06.249Z,1.20
2022-08-11T02:35:42.588Z,1.40
2022-08-11T02:38:28.059Z,1.38
2022-08-11T02:41:40.009Z,1.38
2022-08-11T02:44:28.433Z,1.10
2022-08-11T02:47:23.948Z,1.27
2022-08-11T02:50:07.191Z,1.40
2022-08-11T02:52:46.332Z,1.30
2022-08-11T02:55:55.780Z,1.10
2022-08-11T02:58:38.624Z,1.08
2022-08-11T03:01:20.223Z,1.52
2022-08-11T03:04:05.852Z,0.90
2022-08-11T03:06:38.175Z,1.20
2022-08-11T03:09:24.971Z,1.30
2022-08-11T03:12:19.552Z,1.38
2022-08-11T03:15:31.870Z,1.25
2022-08-11T03:18:25.108Z,1.73
2022-08-11T03:21:20.863Z,2.10
2022-08-11T03:24:03.646Z,1.52
2022-08-11T03:26:54.058Z,1.58
2022-08-11T03:29:31.454Z,1.42
2022-08-11T03:32:29.946Z,1.30
2022-08-11T03:35:01.455Z,1.33
2022-08-11T03:37:51.028Z,1.20
2022-08-11T03:40:55.949Z,0.95
2022-08-11T03:43:50.118Z,1.10
2022-08-11T03:46:38.320Z,1.20
2022-08-11T03:49:34.961Z,1.25
2022-08-11T03:52:04.806Z,1.70
2022-08-11T03:54:34.393Z,1.58
2022-08-11T03:57:28.612Z,1.55
2022-08-11T04:00:11.368Z,1.47
2022-08-11T04:03:03.670Z,1.58
2022-08-11T04:06:09.387Z,1.10
2022-08-11T04:08:47.996Z,0.90
2022-08-11T04:11:32.367Z,1.20
2022-08-11T04:14:42.528Z,1.30
2022-08-11T04:17:36.989Z,1.10
2022-08-11T04:20:30.419Z,1.60
2022-08-11T04:24:35.947Z,1.48
2022-08-11T04:26:57.373Z,1.30
2022-08-11T04:30:03.286Z,1.20
2022-08-11T04:33:02.850Z,1.50
2022-08-11T04:35:34.429Z,1.40
2022-08-11T04:38:44.524Z,1.60
2022-08-11T04:42:05.287Z,1.90
2022-08-11T04:45:12.297Z,1.53
2022-08-11T04:48:19.490Z,1.67
2022-08-11T04:51:29.293Z,1.58
2022-08-11T04:54:50.684Z,1.38
2022-08-11T04:57:58.827Z,1.80
2022-08-11T05:00:49.589Z,1.70
2022-08-11T05:03:56.825Z,1.80
2022-08-11T05:06:44.647Z,1.90
2022-08-11T05:09:26.073Z,1.65
2022-08-11T05:12:14.493Z,2.20
2022-08-11T05:15:13.419Z,1.93
2022-08-11T05:18:04.715Z,1.50
2022-08-11T05:21:04.334Z,2.05
2022-08-11T05:23:57.362Z,1.60
2022-08-11T05:26:48.866Z,1.80
2022-08-11T05:30:06.643Z,2.03
2022-08-11T05:33:02.348Z,2.83
2022-08-11T05:36:00.312Z,3.08
2022-08-11T05:38:49.947Z,2.85
2022-08-11T05:41:41.880Z,2.90
2022-08-11T05:44:29.363Z,2.77
2022-08-11T05:47:16.027Z,2.40
2022-08-11T05:50:08.183Z,2.47
2022-08-11T05:52:57.458Z,2.20
2022-08-11T05:55:52.379Z,2.90
2022-08-11T05:58:42.713Z,2.33
2022-08-11T06:01:14.453Z,2.90
2022-08-11T06:04:03.223Z,2.67
2022-08-11T06:06:31.253Z,2.15
2022-08-11T06:09:00.789Z,2.78
2022-08-11T06:11:44.470Z,3.33
2022-08-11T06:14:12.605Z,2.83
2022-08-11T06:16:41.847Z,2.55
2022-08-11T06:19:09.777Z,2.80
2022-08-11T06:21:37.899Z,2.63
2022-08-11T06:24:11.758Z,2.90
2022-08-11T06:26:55.183Z,2.75
2022-08-11T06:29:37.310Z,3.15
2022-08-11T06:32:06.260Z,2.92
2022-08-11T06:34:46.340Z,3.33
2022-08-11T06:37:42.440Z,2.97
2022-08-11T06:40:36.400Z,2.78
2022-08-11T06:43:18.340Z,3.15
2022-08-11T06:46:25.178Z,3.00
2022-08-11T06:48:59.543Z,3.13
2022-08-11T06:51:27.677Z,2.80
2022-08-11T06:54:04.938Z,3.17
2022-08-11T06:57:26.482Z,3.45
2022-08-11T07:00:03.699Z,3.10
2022-08-11T07:03:00.872Z,3.28
2022-08-11T07:05:43.863Z,2.87
2022-08-11T07:09:03.231Z,2.70
2022-08-11T07:12:14.242Z,3.28
2022-08-11T07:15:09.755Z,2.88
2022-08-11T07:17:50.009Z,3.10
2022-08-11T07:20:37.378Z,3.03
2022-08-11T07:23:27.527Z,2.30
2022-08-11T07:26:15.576Z,2.47
2022-08-11T07:28:59.213Z,2.60
2022-08-11T07:31:31.287Z,2.55
2022-08-11T07:34:18.545Z,2.57
2022-08-11T07:36:54.877Z,2.67
2022-08-11T07:39:33.315Z,2.38
2022-08-11T07:42:05.120Z,2.92
2022-08-11T07:44:55.040Z,3.03
2022-08-11T07:47:43.586Z,2.20
2022-08-11T07:50:29.687Z,2.13
2022-08-11T07:52:59.778Z,2.72
2022-08-11T07:55:50.941Z,2.42
2022-08-11T07:58:45.438Z,2.58
2022-08-11T08:01:40.351Z,2.50
2022-08-11T08:04:38.917Z,2.10
2022-08-11T08:07:24.714Z,2.80
2022-08-11T08:10:15.878Z,2.65
2022-08-11T08:13:01.347Z,3.05
2022-08-11T08:15:47.358Z,1.90
2022-08-11T08:18:27.033Z,2.85
2022-08-11T08:20:56.893Z,2.40
2022-08-11T08:23:36.784Z,2.75
2022-08-11T08:26:25.995Z,2.60
2022-08-11T08:28:55.130Z,2.73
2022-08-11T08:31:25.571Z,2.63
2022-08-11T08:33:52.572Z,1.77
2022-08-11T08:36:24.002Z,2.20
2022-08-11T08:38:54.266Z,1.58
2022-08-11T08:41:29.935Z,2.13
2022-08-11T08:44:27.341Z,1.80
2022-08-11T08:46:56.363Z,2.00
2022-08-11T08:49:28.796Z,1.73
2022-08-11T08:52:26.194Z,2.33
2022-08-11T08:54:54.159Z,1.80
2022-08-11T08:57:23.724Z,1.63
2022-08-11T08:59:52.040Z,1.88
2022-08-11T09:02:34.061Z,1.85
2022-08-11T09:05:03.664Z,1.77
2022-08-11T09:07:38.440Z,2.27
2022-08-11T09:10:07.423Z,1.75
2022-08-11T09:12:38.866Z,1.90
2022-08-11T09:15:09.328Z,2.20
2022-08-11T09:17:41.026Z,1.55
2022-08-11T09:20:17.373Z,1.93
2022-08-11T09:24:08.940Z,1.25
2022-08-11T09:26:12.536Z,1.40
2022-08-11T09:28:44.063Z,1.58
2022-08-11T09:31:14.660Z,1.17
2022-08-11T09:33:43.845Z,1.20
2022-08-11T09:36:34.068Z,1.30
2022-08-11T09:39:24.146Z,1.45
2022-08-11T09:42:00.925Z,1.55
2022-08-11T09:44:49.823Z,1.60
2022-08-11T09:47:23.671Z,2.07
2022-08-11T09:50:02.372Z,1.40
2022-08-11T09:52:33.029Z,1.10
2022-08-11T09:55:02.848Z,1.23
2022-08-11T09:57:48.249Z,1.33
2022-08-11T10:00:15.867Z,1.83
2022-08-11T10:02:48.911Z,1.65
2022-08-11T10:05:42.783Z,1.40
2022-08-11T10:08:16.252Z,1.55
2022-08-11T10:10:45.590Z,1.42
2022-08-11T10:14:31.646Z,1.17
2022-08-11T10:16:15.803Z,1.45
2022-08-11T10:18:51.817Z,1.58
2022-08-11T10:21:30.341Z,1.05
2022-08-11T10:24:19.507Z,1.40
2022-08-11T10:26:54.956Z,1.83
2022-08-11T10:29:56.551Z,1.40
2022-08-11T10:32:49.297Z,1.05
2022-08-11T10:35:28.338Z,1.00
2022-08-11T10:38:06.642Z,1.38
2022-08-11T10:41:07.049Z,1.13
2022-08-11T10:44:01.779Z,1.30
2022-08-11T10:46:42.348Z,1.20
2022-08-11T10:49:09.953Z,1.25
2022-08-11T10:51:57.657Z,1.02
2022-08-11T10:54:44.731Z,1.93
2022-08-11T10:57:30.498Z,1.52
2022-08-11T11:00:01.784Z,1.30
2022-08-11T11:02:29.689Z,1.35
2022-08-11T11:05:02.579Z,0.90
2022-08-11T11:08:27.979Z,1.90
2022-08-11T11:10:57.081Z,1.10
2022-08-11T11:13:53.247Z,1.42
2022-08-11T11:16:50.983Z,1.42
2022-08-11T11:19:25.500Z,1.00
2022-08-11T11:22:18.809Z,1.50
2022-08-11T11:25:01.100Z,1.50
2022-08-11T11:27:46.758Z,1.10
2022-08-11T11:30:15.766Z,1.33
2022-08-11T11:33:11.762Z,1.00
2022-08-11T11:35:49.663Z,1.57
2022-08-11T11:38:17.666Z,1.23
2022-08-11T11:41:05.102Z,1.75
2022-08-11T11:43:35.604Z,1.20
2022-08-11T11:46:03.019Z,1.08
2022-08-11T11:48:31.787Z,1.03
2022-08-11T11:51:01.491Z,1.10
2022-08-11T11:53:32.147Z,2.25
2022-08-11T11:56:00.017Z,1.13
2022-08-11T11:58:46.970Z,1.88
2022-08-11T12:01:19.885Z,1.90
2022-08-11T12:03:49.533Z,1.40
2022-08-11T12:06:18.145Z,1.15
2022-08-11T12:08:48.041Z,1.40
2022-08-11T12:11:34.924Z,0.80
2022-08-11T12:14:10.657Z,1.00
2022-08-11T12:16:44.970Z,1.25
2022-08-11T12:19:18.725Z,1.17
2022-08-11T12:22:04.807Z,0.80
2022-08-11T12:24:52.581Z,1.13
2022-08-11T12:27:25.306Z,0.90
2022-08-11T12:29:56.243Z,1.00
2022-08-11T12:32:32.151Z,0.90
2022-08-11T12:34:59.541Z,0.80
2022-08-11T12:37:35.502Z,1.00
2022-08-11T12:40:43.756Z,0.90
2022-08-11T12:43:39.517Z,1.98
2022-08-11T12:46:12.877Z,2.45
2022-08-11T12:49:04.288Z,0.93
2022-08-11T12:52:06.743Z,0.93
2022-08-11T12:54:51.900Z,0.97
2022-08-11T12:57:44.022Z,1.08
2022-08-11T13:00:32.400Z,1.08
2022-08-11T13:03:18.897Z,1.27
2022-08-11T13:05:48.294Z,1.02
2022-08-11T13:08:17.315Z,1.23
2022-08-11T13:11:04.616Z,0.90
2022-08-11T13:13:53.954Z,0.95
2022-08-11T13:16:23.750Z,0.98
2022-08-11T13:18:53.516Z,0.90
2022-08-11T13:21:22.018Z,1.00
2022-08-11T13:23:59.520Z,1.13
2022-08-11T13:26:47.274Z,0.82
2022-08-11T13:29:25.443Z,1.20
2022-08-11T13:31:57.312Z,0.93
2022-08-11T13:34:27.144Z,1.27
2022-08-11T13:36:55.794Z,1.00
2022-08-11T13:39:25.222Z,0.95
2022-08-11T13:42:01.267Z,0.90
2022-08-11T13:44:36.103Z,0.90
2022-08-11T13:47:15.189Z,1.10
2022-08-11T13:49:45.777Z,1.00
2022-08-11T13:52:19.507Z,0.90
2022-08-11T13:54:49.594Z,2.00
2022-08-11T13:58:08.105Z,1.10
2022-08-11T14:00:27.684Z,1.47
2022-08-11T14:03:05.887Z,1.10
2022-08-11T14:05:47.547Z,1.08
2022-08-11T14:08:37.542Z,0.88
2022-08-11T14:12:23.023Z,1.20
2022-08-11T14:14:23.027Z,1.27
2022-08-11T14:16:56.283Z,1.17
2022-08-11T14:19:27.428Z,0.93
2022-08-11T14:22:08.309Z,1.08
2022-08-11T14:24:41.049Z,0.82
2022-08-11T14:27:46.058Z,1.30
2022-08-11T14:30:04.901Z,0.77
2022-08-11T14:32:35.127Z,1.00
2022-08-11T14:35:21.786Z,1.30
2022-08-11T14:37:49.446Z,1.50
2022-08-11T14:40:37.540Z,0.90
2022-08-11T14:44:12.248Z,1.20
2022-08-11T14:49:00.276Z,1.00
2022-08-11T14:51:31.272Z,0.98
2022-08-11T14:54:19.109Z,1.37
2022-08-11T14:56:46.047Z,1.35
2022-08-11T14:59:13.445Z,1.10
2022-08-11T15:01:59.261Z,1.00
2022-08-11T15:04:34.835Z,1.70
2022-08-11T15:07:03.835Z,4.03
2022-08-11T15:09:30.946Z,1.10
2022-08-11T15:12:32.494Z,1.55
2022-08-11T15:15:19.955Z,1.08
2022-08-11T15:17:49.410Z,0.90
2022-08-11T15:20:36.459Z,1.10
2022-08-11T15:23:23.031Z,1.25
2022-08-11T15:25:59.512Z,1.08
2022-08-11T15:28:48.218Z,1.17
2022-08-11T15:31:40.846Z,1.25
2022-08-11T15:34:36.568Z,0.90
2022-08-11T15:37:29.553Z,1.30
2022-08-11T15:40:35.741Z,0.90
2022-08-11T15:43:29.383Z,1.40
2022-08-11T15:46:02.415Z,1.10
2022-08-11T15:48:36.254Z,1.00
2022-08-11T15:51:16.717Z,1.10
2022-08-11T15:53:56.550Z,1.80
2022-08-11T15:56:28.424Z,1.10
2022-08-11T15:59:41.917Z,1.30
2022-08-11T16:02:11.406Z,1.07
2022-08-11T16:04:45.735Z,1.70
2022-08-11T16:07:15.832Z,1.17
2022-08-11T16:09:47.676Z,0.80
2022-08-11T16:12:30.382Z,1.33
2022-08-11T16:15:25.731Z,0.80
2022-08-11T16:17:57.556Z,1.00
2022-08-11T16:21:00.486Z,0.98
2022-08-11T16:23:29.320Z,1.15
2022-08-11T16:27:02.158Z,1.10
2022-08-11T16:28:44.600Z,1.13
2022-08-11T16:31:12.800Z,1.25
2022-08-11T16:33:49.848Z,1.33
2022-08-11T16:36:43.878Z,0.77
2022-08-11T16:39:20.134Z,1.33
2022-08-11T16:43:06.101Z,1.03
2022-08-11T16:45:35.050Z,1.17
2022-08-11T16:48:36.244Z,1.00
2022-08-11T16:50:50.952Z,1.17
2022-08-11T16:53:17.977Z,1.10
2022-08-11T16:55:52.586Z,0.90
2022-08-11T16:58:40.410Z,1.23
2022-08-11T17:01:09.239Z,1.00
2022-08-11T17:07:23.588Z,1.10
2022-08-11T17:10:31.680Z,0.90
2022-08-11T17:13:09.759Z,1.63
2022-08-11T17:16:10.305Z,1.20
2022-08-11T17:19:12.792Z,1.10
2022-08-11T17:22:02.899Z,0.85
2022-08-11T17:24:31.564Z,1.10
2022-08-11T17:27:00.118Z,0.90
2022-08-11T17:29:34.379Z,1.00
2022-08-11T17:33:00.523Z,0.80
2022-08-11T17:35:32.906Z,0.80
2022-08-11T17:38:13.118Z,1.00
2022-08-11T17:41:03.576Z,0.88
2022-08-11T17:43:49.834Z,0.88
2022-08-11T17:46:35.793Z,0.73
2022-08-11T17:49:04.883Z,0.88
2022-08-11T17:51:50.363Z,0.77
2022-08-11T17:54:36.559Z,0.82
2022-08-11T17:57:22.927Z,0.80
2022-08-11T17:59:52.879Z,0.80
2022-08-11T18:02:41.169Z,1.17
2022-08-11T18:05:13.010Z,0.97
2022-08-11T18:08:02.499Z,0.73
2022-08-11T18:10:50.419Z,0.70
2022-08-11T18:13:41.912Z,1.42
2022-08-11T18:16:27.902Z,1.00
2022-08-11T18:19:13.537Z,1.27
2022-08-11T18:22:14.959Z,0.77
2022-08-11T18:25:11.258Z,0.80
2022-08-11T18:28:01.369Z,0.90
2022-08-11T18:30:50.594Z,0.85
2022-08-11T18:34:05.880Z,0.93
2022-08-11T18:36:56.738Z,0.60
2022-08-11T18:39:46.173Z,0.60
2022-08-11T18:42:44.048Z,0.50
2022-08-11T18:45:35.798Z,0.88
2022-08-11T18:48:37.478Z,0.50
2022-08-11T18:51:30.824Z,0.80
2022-08-11T18:54:23.112Z,0.65
2022-08-11T18:57:08.444Z,0.70
2022-08-11T18:59:57.596Z,0.40
2022-08-11T19:02:49.598Z,0.93
2022-08-11T19:06:36.108Z,0.68
2022-08-11T19:08:48.979Z,0.60
2022-08-11T19:11:42.826Z,0.63
2022-08-11T19:14:36.903Z,0.70
2022-08-11T19:17:43.285Z,0.90
2022-08-11T19:20:38.222Z,0.68
2022-08-11T19:23:26.280Z,0.68
2022-08-11T19:26:12.464Z,0.50
2022-08-11T19:29:00.340Z,0.57
2022-08-11T19:31:49.096Z,0.40
2022-08-11T19:34:42.292Z,0.52
2022-08-11T19:37:29.445Z,0.47
2022-08-11T19:40:25.001Z,0.35
2022-08-11T19:43:23.398Z,0.70
2022-08-11T19:46:17.202Z,0.70
2022-08-11T19:49:04.953Z,0.40
2022-08-11T19:51:55.507Z,0.70
2022-08-11T19:54:50.336Z,0.63
2022-08-11T19:57:40.118Z,0.73
2022-08-11T20:00:31.413Z,0.90
2022-08-11T20:03:25.571Z,0.60
2022-08-11T20:06:13.236Z,0.80
2022-08-11T20:09:01.086Z,0.88
2022-08-11T20:11:51.378Z,0.70
2022-08-11T20:14:40.026Z,0.63
2022-08-11T20:17:31.731Z,0.93
2022-08-11T20:20:22.689Z,0.70
2022-08-11T20:23:13.033Z,0.80
2022-08-11T20:26:13.946Z,0.60
2022-08-11T20:29:02.393Z,0.70
2022-08-11T20:31:48.619Z,0.60
2022-08-11T20:34:35.640Z,0.73
2022-08-11T20:37:23.295Z,1.42
2022-08-11T20:40:10.047Z,0.88
2022-08-11T20:42:56.410Z,1.97
2022-08-11T20:45:53.502Z,0.68
2022-08-11T20:48:47.368Z,0.70
2022-08-11T20:51:38.774Z,1.55
2022-08-11T20:54:43.077Z,0.67
2022-08-11T20:57:58.980Z,1.50
2022-08-11T21:00:48.020Z,0.68
2022-08-11T21:03:36.455Z,1.05
2022-08-11T21:06:34.613Z,0.60
2022-08-11T21:09:58.106Z,0.80
2022-08-11T21:12:31.605Z,0.80
2022-08-11T21:15:38.945Z,0.75
2022-08-11T21:18:27.549Z,0.80
2022-08-11T21:21:18.420Z,0.82
2022-08-11T21:24:06.652Z,0.60
2022-08-11T21:27:01.537Z,1.15
2022-08-11T21:29:51.297Z,0.60
2022-08-11T21:32:39.919Z,0.80
2022-08-11T21:35:27.742Z,0.60
2022-08-11T21:38:14.912Z,0.90
2022-08-11T21:41:01.583Z,0.85
2022-08-11T21:43:49.915Z,0.80
2022-08-11T21:49:39.092Z,0.55
2022-08-11T21:52:24.986Z,0.60
2022-08-11T21:55:11.221Z,1.10
2022-08-11T21:57:58.737Z,0.70
2022-08-11T22:00:49.824Z,0.70
2022-08-11T22:03:41.150Z,1.23
2022-08-11T22:06:36.769Z,0.67
2022-08-11T22:09:25.740Z,0.70
2022-08-11T22:12:34.017Z,1.20
2022-08-11T22:15:23.318Z,1.20
2022-08-11T22:18:09.471Z,0.70
2022-08-11T22:20:56.220Z,0.80
2022-08-11T22:23:42.260Z,0.50
2022-08-11T22:26:28.107Z,0.60
2022-08-11T22:29:18.609Z,0.40
2022-08-11T22:32:27.203Z,0.70
2022-08-11T22:35:15.571Z,0.73
2022-08-11T22:38:05.742Z,0.70
2022-08-11T22:40:52.366Z,0.98
2022-08-11T22:43:43.435Z,0.65
2022-08-11T22:46:29.683Z,1.00
2022-08-11T22:49:17.492Z,0.80
2022-08-11T22:52:03.852Z,0.55
2022-08-11T22:54:50.738Z,0.70
2022-08-11T22:57:37.127Z,0.73
2022-08-11T23:00:24.878Z,1.02
2022-08-11T23:03:37.266Z,0.60
2022-08-11T23:06:28.170Z,0.65
2022-08-11T23:09:15.360Z,0.90
2022-08-11T23:12:06.846Z,0.40
2022-08-11T23:14:53.908Z,0.75
2022-08-11T23:17:39.031Z,1.03
2022-08-11T23:20:30.263Z,3.28
2022-08-11T23:23:32.669Z,0.70
2022-08-11T23:26:19.629Z,0.70
2022-08-11T23:29:04.939Z,0.85
2022-08-11T23:31:53.647Z,0.90
2022-08-11T23:35:04.324Z,0.82
2022-08-11T23:38:00.252Z,0.60
2022-08-11T23:40:46.692Z,0.88
2022-08-11T23:43:42.607Z,0.70
2022-08-11T23:46:28.790Z,1.10
2022-08-11T23:49:25.650Z,0.88
2022-08-11T23:52:15.674Z,0.63
2022-08-11T23:55:12.741Z,0.70
2022-08-11T23:57:58.225Z,1.15
